Time;durP1;ratioP1;P1;durP2;ratioP2;P2;SDS_P1;SDS_P2;PMS_P1;PMS_P2;Temp;Humidity;BMP_temperature;BMP_pressure;BME280_temperature;BME280_humidity;BME280_pressure;Samples;Min_cycle;Max_cycle;Signal;HPM_P1;HPM_P2
2021/04/11 04:48:55;;;;;;;6.32;3.42;;;;;;;;;;6274345;22;20098;-82
2021/04/11 04:51:32;;;;;;;8.05;4.50;;;;;;;;;;6250557;22;20008;-84
2021/04/11 04:54:00;;;;;;;9.35;3.75;;;;;;;;;;6282634;22;20008;-86
2021/04/11 04:56:35;;;;;;;7.55;4.10;;;;;;;;;;6260343;22;20004;-84
2021/04/11 04:59:13;;;;;;;6.47;2.97;;;;;;;;;;6248644;22;20050;-83
2021/04/11 05:01:44;;;;;;;7.07;3.55;;;;;;;;;;6273634;22;20438;-83
2021/04/11 05:04:16;;;;;;;6.10;3.07;;;;;;;;;;6253535;22;20010;-85
2021/04/11 05:06:43;;;;;;;4.70;2.97;;;;;;;;;;6253356;22;20233;-84
2021/04/11 05:24:13;;;;;;;5.03;3.17;;;;;;;;;;5095761;28;21038;-84
2021/04/11 05:26:42;;;;;;;6.65;3.28;;;;;;;;;;5088527;28;20039;-84
2021/04/11 05:29:15;;;;;;;5.28;3.20;;;;;;;;;;5068755;28;20075;-85
2021/04/11 05:31:41;;;;;;;6.28;2.75;;;;;;;;;;5077252;28;20070;-85
2021/04/11 05:34:09;;;;;;;5.18;3.20;;;;;;;;;;5082519;28;20021;-84
2021/04/11 05:36:44;;;;;;;5.88;3.47;;;;;;;;;;5084236;28;20021;-85
2021/04/11 05:39:12;;;;;;;5.60;3.50;;;;;;;;;;5057187;28;20044;-84
2021/04/11 05:41:41;;;;;;;6.95;3.95;;;;;;;;;;5083288;28;20347;-84
2021/04/11 05:44:15;;;;;;;5.75;3.30;;;;;;;;;;5082774;28;20020;-85
2021/04/11 05:46:48;;;;;;;6.38;3.45;;;;;;;;;;5084176;28;20470;-84
2021/04/11 05:49:18;;;;;;;6.43;3.65;;;;;;;;;;5083021;28;20016;-84
2021/04/11 05:51:47;;;;;;;12.50;3.95;;;;;;;;;;5079645;28;20048;-85
2021/04/11 05:54:30;;;;;;;8.05;3.60;;;;;;;;;;5082151;28;20087;-82
2021/04/11 05:56:59;;;;;;;8.32;3.55;;;;;;;;;;5058110;28;20025;-82
2021/04/11 05:59:45;;;;;;;6.38;3.35;;;;;;;;;;5057581;28;20061;-81
2021/04/11 06:04:32;;;;;;;5.55;3.25;;;;;;;;;;5064075;28;20914;-83
2021/04/11 06:07:13;;;;;;;6.97;3.60;;;;;;;;;;5072963;28;20472;-81
2021/04/11 06:09:41;;;;;;;7.72;3.78;;;;;;;;;;5066209;28;20021;-81
2021/04/11 06:12:11;;;;;;;6.78;3.03;;;;;;;;;;5066724;28;20048;-81
2021/04/11 06:14:43;;;;;;;7.90;3.33;;;;;;;;;;5066445;28;20033;-81
2021/04/11 06:17:10;;;;;;;5.93;3.63;;;;;;;;;;5072039;28;20063;-82
2021/04/11 06:19:36;;;;;;;7.20;3.70;;;;;;;;;;5081358;28;20029;-82
2021/04/11 06:24:41;;;;;;;5.70;3.85;;;;;;;;;;5065922;28;20444;-82
2021/04/11 06:27:12;;;;;;;5.80;3.72;;;;;;;;;;5048851;28;20030;-82
2021/04/11 06:29:46;;;;;;;6.80;3.25;;;;;;;;;;5030133;28;20022;-82
2021/04/11 06:32:13;;;;;;;8.95;4.18;;;;;;;;;;5028674;28;20029;-81
2021/04/11 06:34:41;;;;;;;6.35;4.28;;;;;;;;;;5031738;28;20025;-83
2021/04/11 06:37:09;;;;;;;9.18;5.28;;;;;;;;;;5032222;28;20018;-82
2021/04/11 06:39:38;;;;;;;6.90;4.72;;;;;;;;;;5046561;28;20424;-82
2021/04/11 06:42:07;;;;;;;7.78;5.78;;;;;;;;;;5040342;28;20061;-82
2021/04/11 06:44:33;;;;;;;11.38;7.63;;;;;;;;;;5039805;28;20051;-82
2021/04/11 06:47:17;;;;;;;52.03;26.85;;;;;;;;;;5042830;28;20017;-82
2021/04/11 06:50:01;;;;;;;42.97;20.75;;;;;;;;;;5035610;28;20049;-82
2021/04/11 06:52:46;;;;;;;32.92;17.30;;;;;;;;;;5039909;28;20076;-82
2021/04/11 06:55:14;;;;;;;21.63;11.32;;;;;;;;;;5034254;28;20029;-82
2021/04/11 06:57:52;;;;;;;15.07;7.82;;;;;;;;;;5041107;28;20059;-82
2021/04/11 07:00:36;;;;;;;14.10;8.15;;;;;;;;;;5030457;28;20049;-81
2021/04/11 07:03:21;;;;;;;11.15;6.47;;;;;;;;;;5035418;28;20029;-82
2021/04/11 07:06:07;;;;;;;9.88;4.38;;;;;;;;;;5048167;28;20030;-82
2021/04/11 07:08:39;;;;;;;7.22;3.92;;;;;;;;;;5020416;28;20042;-82
2021/04/11 07:11:07;;;;;;;6.85;3.42;;;;;;;;;;5031707;28;20088;-81
2021/04/11 07:14:05;;;;;;;5.97;3.83;;;;;;;;;;5033814;28;20022;-82
2021/04/11 07:16:52;;;;;;;24.65;8.93;;;;;;;;;;5033766;28;20044;-82
2021/04/11 07:19:36;;;;;;;31.80;12.43;;;;;;;;;;5025994;28;20428;-81
2021/04/11 07:22:08;;;;;;;39.60;15.65;;;;;;;;;;5026502;28;20079;-81
2021/04/11 07:24:33;;;;;;;;;;;;;;;;;;5028420;28;20468;-81
2021/04/11 07:27:14;;;;;;;68.88;27.05;;;;;;;;;;5028122;28;19909;-82
2021/04/11 07:30:00;;;;;;;56.95;22.92;;;;;;;;;;5031074;28;20092;-81
2021/04/11 07:32:28;;;;;;;32.25;15.98;;;;;;;;;;5033610;28;20048;-82
2021/04/11 07:35:12;;;;;;;33.25;15.23;;;;;;;;;;5022701;28;20071;-82
2021/04/11 07:38:11;;;;;;;33.92;18.58;;;;;;;;;;5025021;28;20018;-81
2021/04/11 07:40:56;;;;;;;25.80;13.82;;;;;;;;;;5018778;28;20065;-81
2021/04/11 07:43:27;;;;;;;23.85;13.32;;;;;;;;;;5018642;28;20356;-82
2021/04/11 07:45:59;;;;;;;20.52;12.52;;;;;;;;;;5019794;28;20029;-81
2021/04/11 07:48:44;;;;;;;23.42;12.10;;;;;;;;;;5018190;28;20034;-82
2021/04/11 07:51:22;;;;;;;16.90;9.85;;;;;;;;;;5031098;28;20030;-82
2021/04/11 07:53:59;;;;;;;11.07;6.18;;;;;;;;;;5014432;28;20064;-82
2021/04/11 07:56:44;;;;;;;10.20;5.90;;;;;;;;;;5015853;28;20533;-81
2021/04/11 07:59:25;;;;;;;7.53;4.60;;;;;;;;;;5015860;28;20022;-82
2021/04/11 08:02:09;;;;;;;8.80;5.55;;;;;;;;;;5018319;28;20072;-83
2021/04/11 08:04:34;;;;;;;13.95;7.60;;;;;;;;;;5014305;28;20057;-82
2021/04/11 08:07:08;;;;;;;15.63;10.20;;;;;;;;;;5012708;28;20076;-81
2021/04/11 08:09:48;;;;;;;16.65;10.13;;;;;;;;;;5010912;28;20261;-82
2021/04/11 08:12:36;;;;;;;10.02;6.47;;;;;;;;;;5015237;28;20026;-82
2021/04/11 08:15:14;;;;;;;8.85;6.03;;;;;;;;;;5026833;28;20021;-82
2021/04/11 08:17:59;;;;;;;36.67;15.85;;;;;;;;;;5013047;28;20045;-82
2021/04/11 08:20:43;;;;;;;88.90;32.83;;;;;;;;;;5026719;28;20030;-82
2021/04/11 08:23:09;;;;;;;182.27;62.58;;;;;;;;;;5013804;28;20026;-82
2021/04/11 08:25:37;;;;;;;201.35;68.97;;;;;;;;;;5013942;28;20586;-81
2021/04/11 08:28:22;;;;;;;110.20;39.55;;;;;;;;;;5022792;28;20029;-82
2021/04/11 08:30:50;;;;;;;57.80;22.83;;;;;;;;;;5015394;28;20025;-82
2021/04/11 08:33:32;;;;;;;39.40;14.02;;;;;;;;;;5014705;28;20030;-81
2021/04/11 08:36:04;;;;;;;64.28;25.02;;;;;;;;;;5012718;28;20470;-82
2021/04/11 08:38:41;;;;;;;65.00;30.02;;;;;;;;;;5012923;28;20065;-82
2021/04/11 08:41:13;;;;;;;40.33;20.13;;;;;;;;;;5012699;28;20047;-82
2021/04/11 08:43:51;;;;;;;30.75;14.98;;;;;;;;;;5020514;28;20026;-81
2021/04/11 08:46:17;;;;;;;27.60;14.73;;;;;;;;;;5012695;28;20068;-82
2021/04/11 08:48:43;;;;;;;22.80;11.70;;;;;;;;;;5014409;28;20378;-81
2021/04/11 08:51:15;;;;;;;13.38;5.97;;;;;;;;;;5013204;28;20026;-82
2021/04/11 08:53:52;;;;;;;7.57;3.30;;;;;;;;;;5012400;28;20386;-81
2021/04/11 08:56:18;;;;;;;5.47;3.05;;;;;;;;;;5017549;28;20053;-82
2021/04/11 08:59:01;;;;;;;6.30;2.40;;;;;;;;;;5011073;28;20111;-82
2021/04/11 09:01:46;;;;;;;6.63;2.60;;;;;;;;;;5013327;28;20029;-82
2021/04/11 09:04:30;;;;;;;5.90;2.55;;;;;;;;;;5023501;28;20030;-82
2021/04/11 09:07:14;;;;;;;5.75;2.67;;;;;;;;;;5013816;28;20032;-82
2021/04/11 09:09:58;;;;;;;9.10;3.10;;;;;;;;;;5015041;28;20025;-82
2021/04/11 09:12:31;;;;;;;5.65;2.80;;;;;;;;;;5026553;28;20025;-81
2021/04/11 09:15:18;;;;;;;6.47;3.70;;;;;;;;;;5005818;28;20044;-81
2021/04/11 09:17:58;;;;;;;11.80;5.65;;;;;;;;;;5009987;28;20076;-82
2021/04/11 09:20:30;;;;;;;19.77;10.82;;;;;;;;;;5006457;28;20474;-81
2021/04/11 09:23:15;;;;;;;16.00;8.15;;;;;;;;;;5012534;28;20029;-82
2021/04/11 09:25:45;;;;;;;7.10;4.03;;;;;;;;;;5016440;28;20057;-82
2021/04/11 09:28:20;;;;;;;6.82;3.20;;;;;;;;;;5012893;28;20049;-82
2021/04/11 09:31:05;;;;;;;6.60;3.05;;;;;;;;;;5015801;28;20053;-82
2021/04/11 09:33:40;;;;;;;5.75;2.72;;;;;;;;;;5012913;28;20615;-82
2021/04/11 09:36:10;;;;;;;4.57;1.95;;;;;;;;;;5012572;28;20018;-82
2021/04/11 09:38:42;;;;;;;7.00;2.85;;;;;;;;;;5014349;28;20033;-80
2021/04/11 09:41:07;;;;;;;7.07;3.67;;;;;;;;;;5011294;28;20037;-80
2021/04/11 09:43:33;;;;;;;3.83;2.40;;;;;;;;;;5013840;28;20783;-81
2021/04/11 09:46:02;;;;;;;3.88;1.90;;;;;;;;;;5016575;28;20040;-81
2021/04/11 09:48:48;;;;;;;5.85;1.95;;;;;;;;;;5015362;28;20056;-81
2021/04/11 09:51:19;;;;;;;7.78;3.30;;;;;;;;;;5011606;28;20058;-81
2021/04/11 09:54:01;;;;;;;8.50;4.03;;;;;;;;;;5012366;28;20053;-81
2021/04/11 09:56:28;;;;;;;5.28;2.50;;;;;;;;;;5026426;28;20397;-82
2021/04/11 09:59:00;;;;;;;5.45;2.58;;;;;;;;;;5013558;28;20041;-81
2021/04/11 10:01:44;;;;;;;8.70;3.53;;;;;;;;;;5016159;28;20057;-81
2021/04/11 10:04:16;;;;;;;8.80;3.17;;;;;;;;;;5016363;28;20041;-81
2021/04/11 10:06:55;;;;;;;4.70;2.63;;;;;;;;;;5022768;28;20029;-82
2021/04/11 10:09:39;;;;;;;3.70;1.88;;;;;;;;;;5014452;28;20118;-82
2021/04/11 10:12:23;;;;;;;7.25;2.33;;;;;;;;;;5017134;28;20018;-82
2021/04/11 10:15:08;;;;;;;6.82;1.98;;;;;;;;;;5019495;28;20370;-82
2021/04/11 10:17:39;;;;;;;5.28;2.28;;;;;;;;;;5019302;28;20032;-81
2021/04/11 10:20:05;;;;;;;;;;;;;;;;;;5013275;28;20026;-81
2021/04/11 10:22:35;;;;;;;4.50;2.60;;;;;;;;;;5019241;28;19924;-82
2021/04/11 10:25:01;;;;;;;7.43;2.50;;;;;;;;;;5018498;28;20029;-82
2021/04/11 10:27:30;;;;;;;6.50;3.40;;;;;;;;;;5019160;28;20069;-83
2021/04/11 10:29:56;;;;;;;5.30;2.65;;;;;;;;;;5017337;28;20419;-82
2021/04/11 10:32:31;;;;;;;5.15;2.40;;;;;;;;;;5019487;28;20552;-82
2021/04/11 10:35:03;;;;;;;4.05;2.47;;;;;;;;;;5017157;28;20030;-83
2021/04/11 10:37:31;;;;;;;5.05;2.45;;;;;;;;;;5019563;28;20075;-82
2021/04/11 10:40:00;;;;;;;5.68;2.35;;;;;;;;;;5017599;28;20037;-82
2021/04/11 10:42:37;;;;;;;4.13;2.25;;;;;;;;;;5016887;28;20529;-82
2021/04/11 10:45:15;;;;;;;5.50;2.40;;;;;;;;;;5013755;28;20041;-83
2021/04/11 10:47:50;;;;;;;3.40;2.00;;;;;;;;;;5015749;28;20022;-83
2021/04/11 10:50:30;;;;;;;5.60;2.40;;;;;;;;;;5014810;28;20041;-83
2021/04/11 10:53:15;;;;;;;5.15;2.08;;;;;;;;;;5012369;28;20022;-83
2021/04/11 10:55:59;;;;;;;4.40;2.13;;;;;;;;;;5013585;28;20097;-83
2021/04/11 10:58:25;;;;;;;5.18;2.05;;;;;;;;;;5012903;28;20018;-83
2021/04/11 11:00:51;;;;;;;3.45;1.70;;;;;;;;;;5018134;28;20026;-83
2021/04/11 11:03:24;;;;;;;5.00;2.22;;;;;;;;;;5029632;28;20072;-83
2021/04/11 11:05:49;;;;;;;5.07;2.30;;;;;;;;;;5011296;28;20022;-81
2021/04/11 11:08:15;;;;;;;5.20;2.75;;;;;;;;;;5013847;28;20018;-83
2021/04/11 11:13:03;;;;;;;5.13;1.98;;;;;;;;;;5105051;27;20375;-83
2021/04/11 11:15:49;;;;;;;4.85;2.20;;;;;;;;;;5110057;28;20024;-83
2021/04/11 11:18:23;;;;;;;4.43;2.17;;;;;;;;;;5097333;28;20029;-83
2021/04/11 11:20:55;;;;;;;4.45;1.90;;;;;;;;;;5101969;28;20077;-83
2021/04/11 11:23:39;;;;;;;8.38;2.45;;;;;;;;;;5098332;27;20066;-83
2021/04/11 11:26:13;;;;;;;4.57;1.83;;;;;;;;;;5057793;28;20017;-83
2021/04/11 11:28:48;;;;;;;6.55;2.05;;;;;;;;;;5069046;28;20524;-83
2021/04/11 11:31:32;;;;;;;3.75;1.60;;;;;;;;;;5064215;28;20031;-83
2021/04/11 11:34:28;;;;;;;5.10;2.38;;;;;;;;;;5064490;28;20063;-83
2021/04/11 11:37:01;;;;;;;5.78;2.28;;;;;;;;;;5058630;23;20403;-77
2021/04/11 11:39:34;;;;;;;4.68;2.00;;;;;;;;;;5014225;28;20031;-79
2021/04/11 11:42:15;;;;;;;7.10;2.38;;;;;;;;;;5016256;28;20038;-78
2021/04/11 11:44:56;;;;;;;5.97;2.25;;;;;;;;;;5017776;28;20025;-78
2021/04/11 11:47:26;;;;;;;7.95;2.53;;;;;;;;;;5016099;28;20454;-78
2021/04/11 11:50:00;;;;;;;3.70;1.95;;;;;;;;;;5016284;28;20026;-83
2021/04/11 11:52:29;;;;;;;5.65;2.00;;;;;;;;;;5014176;28;20022;-76
2021/04/11 11:54:58;;;;;;;5.68;2.60;;;;;;;;;;5014252;28;20741;-77
2021/04/11 11:57:33;;;;;;;4.25;2.13;;;;;;;;;;5015394;28;20029;-77
2021/04/11 12:00:02;;;;;;;4.05;2.17;;;;;;;;;;5014811;28;20055;-78
2021/04/11 12:02:36;;;;;;;6.95;3.15;;;;;;;;;;5013672;28;20036;-79
2021/04/11 12:05:10;;;;;;;3.83;2.17;;;;;;;;;;5014070;28;20018;-78
2021/04/11 12:07:45;;;;;;;6.03;1.60;;;;;;;;;;5014754;28;20512;-78
2021/04/11 12:10:22;;;;;;;2.97;1.70;;;;;;;;;;5014984;28;20036;-77
2021/04/11 12:13:14;;;;;;;5.68;1.40;;;;;;;;;;5014640;28;20050;-78
2021/04/11 12:15:40;;;;;;;2.75;1.45;;;;;;;;;;5016886;28;20041;-78
2021/04/11 12:18:13;;;;;;;3.03;1.73;;;;;;;;;;5016232;28;20017;-78
2021/04/11 12:20:49;;;;;;;6.38;2.20;;;;;;;;;;5015351;28;20014;-78
2021/04/11 12:23:35;;;;;;;3.75;1.55;;;;;;;;;;5008353;28;20041;-77
2021/04/11 12:26:20;;;;;;;3.38;1.65;;;;;;;;;;5000625;28;20022;-78
2021/04/11 12:28:47;;;;;;;3.03;1.42;;;;;;;;;;5001759;28;20018;-78
2021/04/11 12:31:24;;;;;;;1.70;0.90;;;;;;;;;;5001578;28;20040;-78
2021/04/11 12:33:58;;;;;;;6.10;3.08;;;;;;;;;;4998155;28;20030;-78
2021/04/11 12:36:39;;;;;;;5.90;2.92;;;;;;;;;;4995936;28;20058;-77
2021/04/11 12:39:28;;;;;;;6.82;3.10;;;;;;;;;;4995594;28;20042;-77
2021/04/11 12:42:04;;;;;;;4.80;2.38;;;;;;;;;;4993287;28;20076;-77
2021/04/11 12:44:32;;;;;;;4.57;2.00;;;;;;;;;;4993746;28;20054;-77
2021/04/11 12:46:58;;;;;;;4.63;2.38;;;;;;;;;;4994091;28;20053;-77
2021/04/11 12:49:28;;;;;;;4.15;2.17;;;;;;;;;;4995186;28;20015;-76
2021/04/11 12:52:01;;;;;;;4.97;2.40;;;;;;;;;;4996296;28;20030;-76
2021/04/11 12:54:30;;;;;;;3.63;1.70;;;;;;;;;;4996600;28;20535;-79
2021/04/11 12:56:59;;;;;;;3.95;2.33;;;;;;;;;;4995466;28;20054;-78
2021/04/11 12:59:29;;;;;;;6.25;2.90;;;;;;;;;;4995729;28;20061;-78
2021/04/11 13:01:56;;;;;;;8.57;3.47;;;;;;;;;;4993785;28;20402;-77
2021/04/11 13:04:26;;;;;;;5.55;2.65;;;;;;;;;;4995009;28;20438;-77
2021/04/11 13:06:55;;;;;;;6.30;3.40;;;;;;;;;;4994661;28;20018;-77
2021/04/11 13:09:34;;;;;;;14.00;6.28;;;;;;;;;;4994771;28;20033;-77
2021/04/11 13:12:06;;;;;;;18.98;7.03;;;;;;;;;;4986767;28;20442;-77
2021/04/11 13:14:50;;;;;;;31.08;14.77;;;;;;;;;;4995073;28;20028;-76
2021/04/11 13:17:22;;;;;;;33.60;15.93;;;;;;;;;;4994766;28;20073;-77
2021/04/11 13:20:08;;;;;;;5.72;3.38;;;;;;;;;;4994053;28;20060;-77
2021/04/11 13:22:43;;;;;;;8.73;4.32;;;;;;;;;;4995060;28;20037;-78
2021/04/11 13:25:14;;;;;;;10.02;4.35;;;;;;;;;;4994987;28;20033;-77
2021/04/11 13:27:43;;;;;;;7.75;3.40;;;;;;;;;;4994930;28;20033;-77
2021/04/11 13:30:09;;;;;;;6.15;3.05;;;;;;;;;;4994705;28;20026;-77
2021/04/11 13:32:44;;;;;;;10.73;4.20;;;;;;;;;;4994547;28;20018;-77
2021/04/11 13:35:10;;;;;;;4.78;2.08;;;;;;;;;;4991189;28;20054;-78
2021/04/11 13:37:41;;;;;;;5.03;2.35;;;;;;;;;;5003885;28;20026;-77
2021/04/11 13:42:31;;;;;;;4.00;1.75;;;;;;;;;;5101614;27;20386;-77
2021/04/11 13:45:06;;;;;;;4.30;2.35;;;;;;;;;;5089739;28;20028;-77
2021/04/11 13:47:45;;;;;;;4.55;2.00;;;;;;;;;;5084079;28;20023;-77
2021/04/11 13:50:26;;;;;;;5.68;2.00;;;;;;;;;;5077772;28;20021;-78
2021/04/11 13:52:59;;;;;;;4.07;1.55;;;;;;;;;;5086157;28;20017;-76
2021/04/11 13:55:34;;;;;;;3.65;2.00;;;;;;;;;;5087111;28;20016;-78
2021/04/11 13:58:02;;;;;;;8.52;3.00;;;;;;;;;;5077704;28;20037;-77
2021/04/11 14:00:47;;;;;;;9.18;4.05;;;;;;;;;;5091267;28;20515;-77
2021/04/11 14:03:18;;;;;;;3.95;1.77;;;;;;;;;;5086174;28;20027;-78
2021/04/11 14:05:50;;;;;;;6.38;3.05;;;;;;;;;;5086554;28;20016;-78
2021/04/11 14:08:16;;;;;;;;;;;;;;;;;;5088101;28;20519;-77
2021/04/11 14:10:44;;;;;;;6.95;4.18;;;;;;;;;;5090595;28;19917;-78
2021/04/11 14:13:12;;;;;;;41.03;20.02;;;;;;;;;;5090685;28;20052;-78
2021/04/11 14:15:47;;;;;;;58.47;32.38;;;;;;;;;;5092104;28;20020;-77
2021/04/11 14:18:16;;;;;;;29.65;17.02;;;;;;;;;;5086517;28;20012;-78
2021/04/11 14:20:45;;;;;;;29.42;17.13;;;;;;;;;;5077841;28;20032;-78
2021/04/11 14:23:25;;;;;;;11.20;6.95;;;;;;;;;;5082378;28;20048;-77
2021/04/11 14:26:17;;;;;;;16.23;10.38;;;;;;;;;;5088188;28;20012;-78
2021/04/11 14:28:55;;;;;;;7.18;5.55;;;;;;;;;;5055338;28;20056;-78
2021/04/11 14:31:33;;;;;;;5.50;3.17;;;;;;;;;;5089271;28;20035;-77
2021/04/11 14:33:59;;;;;;;3.70;2.33;;;;;;;;;;5088403;28;20047;-76
2021/04/11 14:36:26;;;;;;;6.65;3.50;;;;;;;;;;5082127;28;20701;-77
2021/04/11 14:38:55;;;;;;;6.68;4.03;;;;;;;;;;5080394;28;20016;-77
2021/04/11 14:41:35;;;;;;;6.93;3.05;;;;;;;;;;5084875;28;20051;-78
2021/04/11 14:44:01;;;;;;;8.27;4.47;;;;;;;;;;5082728;28;20025;-77
2021/04/11 14:46:45;;;;;;;5.47;3.00;;;;;;;;;;5083948;28;20029;-76
2021/04/11 14:49:16;;;;;;;4.60;2.47;;;;;;;;;;5085044;28;20077;-78
2021/04/11 14:51:44;;;;;;;5.75;3.17;;;;;;;;;;5078542;28;20495;-77
2021/04/11 14:54:10;;;;;;;4.60;2.55;;;;;;;;;;5066883;28;20040;-78
2021/04/11 14:56:49;;;;;;;4.22;2.00;;;;;;;;;;5067085;28;20028;-77
2021/04/11 14:59:31;;;;;;;6.30;2.10;;;;;;;;;;5073803;28;20016;-78
2021/04/11 15:02:16;;;;;;;5.25;2.25;;;;;;;;;;5069440;28;20024;-78
2021/04/11 15:04:41;;;;;;;3.45;2.20;;;;;;;;;;5068382;28;20017;-76
2021/04/11 15:07:21;;;;;;;4.60;2.15;;;;;;;;;;5065677;28;20450;-76
2021/04/11 15:10:05;;;;;;;5.22;2.20;;;;;;;;;;5075103;28;20035;-77
2021/04/11 15:12:31;;;;;;;4.15;2.10;;;;;;;;;;5072538;28;20443;-78
2021/04/11 15:15:15;;;;;;;7.63;2.10;;;;;;;;;;5062385;28;20016;-78
2021/04/11 15:17:47;;;;;;;6.00;3.60;;;;;;;;;;5065101;28;20025;-76
2021/04/11 15:20:18;;;;;;;9.80;5.75;;;;;;;;;;5057370;28;20092;-77
2021/04/11 15:23:00;;;;;;;9.02;4.65;;;;;;;;;;5061152;28;20023;-77
2021/04/11 15:25:26;;;;;;;5.28;3.40;;;;;;;;;;5059253;28;20032;-77
2021/04/11 15:28:01;;;;;;;6.53;3.85;;;;;;;;;;5068359;28;20017;-77
2021/04/11 15:30:35;;;;;;;6.32;3.60;;;;;;;;;;5072799;28;20077;-78
2021/04/11 15:33:17;;;;;;;13.18;8.15;;;;;;;;;;5060313;28;20342;-76
2021/04/11 15:36:09;;;;;;;8.02;5.43;;;;;;;;;;5066069;28;20024;-77
2021/04/11 15:38:50;;;;;;;5.82;2.88;;;;;;;;;;5062402;28;20480;-77
2021/04/11 15:41:34;;;;;;;4.55;2.83;;;;;;;;;;5065334;28;20086;-78
2021/04/11 15:44:22;;;;;;;4.20;1.88;;;;;;;;;;5074559;28;20044;-78
2021/04/11 15:47:00;;;;;;;3.10;1.90;;;;;;;;;;5075590;28;20673;-78
2021/04/11 15:49:40;;;;;;;4.40;2.40;;;;;;;;;;5076450;28;20012;-77
2021/04/11 15:52:08;;;;;;;4.10;2.40;;;;;;;;;;5074356;28;20016;-77
2021/04/11 15:54:43;;;;;;;4.57;2.92;;;;;;;;;;5068408;28;20024;-77
2021/04/11 15:57:19;;;;;;;4.88;2.50;;;;;;;;;;5072572;28;20025;-77
2021/04/11 16:00:01;;;;;;;4.53;2.20;;;;;;;;;;5062756;28;20021;-76
2021/04/11 16:02:34;;;;;;;3.88;1.98;;;;;;;;;;5069149;28;20045;-78
2021/04/11 16:05:18;;;;;;;4.78;2.28;;;;;;;;;;5075240;28;20012;-77
2021/04/11 16:07:46;;;;;;;6.80;2.25;;;;;;;;;;5071016;28;20021;-76
2021/04/11 16:10:24;;;;;;;3.45;2.00;;;;;;;;;;5067031;28;20028;-76
2021/04/11 16:13:07;;;;;;;5.32;2.28;;;;;;;;;;5064594;28;20063;-76
2021/04/11 16:15:42;;;;;;;4.15;1.55;;;;;;;;;;5059118;28;20035;-77
2021/04/11 16:18:25;;;;;;;3.92;1.60;;;;;;;;;;5072573;28;20078;-77
2021/04/11 16:20:57;;;;;;;3.88;1.80;;;;;;;;;;5065924;28;20032;-78
2021/04/11 16:23:22;;;;;;;;;;;;;;;;;;5071279;28;20021;-76
2021/04/11 16:26:05;;;;;;;3.10;1.50;;;;;;;;;;5063058;28;20577;-76
2021/04/11 16:28:49;;;;;;;2.45;1.33;;;;;;;;;;5066706;28;20052;-77
2021/04/11 16:31:27;;;;;;;4.90;1.83;;;;;;;;;;5063829;28;20520;-78
2021/04/11 16:34:09;;;;;;;16.63;12.73;;;;;;;;;;5066013;28;20052;-77
2021/04/11 16:36:44;;;;;;;6.32;3.35;;;;;;;;;;5064309;28;20025;-77
2021/04/11 16:39:16;;;;;;;5.35;2.63;;;;;;;;;;5064158;28;20067;-77
2021/04/11 16:42:00;;;;;;;4.72;2.00;;;;;;;;;;5068245;28;20063;-77
2021/04/11 16:44:39;;;;;;;5.20;1.80;;;;;;;;;;5061216;28;20028;-77
2021/04/11 16:47:08;;;;;;;3.60;2.38;;;;;;;;;;5062711;28;20081;-77
2021/04/11 16:49:38;;;;;;;9.77;2.05;;;;;;;;;;5067549;28;20107;-77
2021/04/11 16:52:09;;;;;;;4.38;1.80;;;;;;;;;;5071717;28;20099;-77
2021/04/11 16:54:38;;;;;;;3.37;2.00;;;;;;;;;;5065322;28;20040;-77
2021/04/11 16:59:24;;;;;;;11.95;7.65;;;;;;;;;;5067347;28;20362;-77
2021/04/11 17:01:59;;;;;;;3.90;1.73;;;;;;;;;;5065604;28;20067;-77
2021/04/11 17:04:31;;;;;;;3.08;1.50;;;;;;;;;;5064380;28;20112;-77
2021/04/11 17:07:15;;;;;;;4.85;2.40;;;;;;;;;;5064904;28;20074;-77
2021/04/11 17:09:48;;;;;;;2.70;1.00;;;;;;;;;;5042844;28;20279;-78
2021/04/11 17:12:15;;;;;;;3.75;1.00;;;;;;;;;;5061439;28;20028;-78
2021/04/11 17:14:47;;;;;;;1.73;0.90;;;;;;;;;;5063040;28;20048;-77
2021/04/11 17:17:19;;;;;;;2.50;1.00;;;;;;;;;;5066643;28;20039;-76
2021/04/11 17:19:48;;;;;;;2.42;1.13;;;;;;;;;;5061167;28;20712;-76
2021/04/11 17:22:26;;;;;;;1.90;0.80;;;;;;;;;;5061057;28;20021;-76
2021/04/11 17:25:00;;;;;;;3.75;0.88;;;;;;;;;;5069724;28;20013;-76
2021/04/11 17:29:47;;;;;;;6.75;3.45;;;;;;;;;;5155770;27;20974;-77
2021/04/11 17:32:31;;;;;;;5.35;3.03;;;;;;;;;;5118098;28;20028;-77
2021/04/11 17:35:09;;;;;;;5.63;2.97;;;;;;;;;;5130190;28;20058;-78
2021/04/11 17:37:44;;;;;;;3.95;1.80;;;;;;;;;;5128228;27;20036;-77
2021/04/11 17:40:15;;;;;;;3.53;1.92;;;;;;;;;;5131909;27;20023;-77
2021/04/11 17:42:40;;;;;;;6.65;3.70;;;;;;;;;;5135351;27;20042;-77
2021/04/11 17:45:12;;;;;;;5.03;2.25;;;;;;;;;;5126015;27;20047;-77
2021/04/11 17:47:41;;;;;;;5.38;2.67;;;;;;;;;;5127422;27;20107;-76
2021/04/11 17:50:19;;;;;;;6.28;2.90;;;;;;;;;;5120870;27;20107;-77
2021/04/11 17:52:53;;;;;;;3.35;1.73;;;;;;;;;;5129394;27;20027;-77
2021/04/11 17:55:21;;;;;;;3.90;1.90;;;;;;;;;;5136310;27;20015;-77
2021/04/11 17:57:53;;;;;;;3.50;1.60;;;;;;;;;;5132536;27;20448;-77
2021/04/11 18:00:26;;;;;;;9.70;6.18;;;;;;;;;;5135873;27;20030;-77
2021/04/11 18:03:01;;;;;;;15.93;9.48;;;;;;;;;;5133254;27;20114;-77
2021/04/11 18:05:28;;;;;;;9.30;5.78;;;;;;;;;;5139652;27;20041;-77
2021/04/11 18:07:54;;;;;;;11.30;5.57;;;;;;;;;;5129705;27;20023;-77
2021/04/11 18:10:28;;;;;;;3.75;2.42;;;;;;;;;;5134913;27;20027;-77
2021/04/11 18:13:08;;;;;;;4.07;2.30;;;;;;;;;;5128109;27;20460;-77
2021/04/11 18:15:46;;;;;;;4.20;2.53;;;;;;;;;;5125697;27;20039;-77
2021/04/11 18:18:36;;;;;;;4.40;2.50;;;;;;;;;;5125462;27;20088;-77
2021/04/11 18:21:11;;;;;;;6.80;3.60;;;;;;;;;;5123369;27;20022;-77
2021/04/11 18:23:40;;;;;;;3.50;1.55;;;;;;;;;;5124458;27;20027;-77
2021/04/11 18:26:08;;;;;;;5.47;2.67;;;;;;;;;;5135133;27;20106;-77
2021/04/11 18:28:57;;;;;;;4.50;2.05;;;;;;;;;;5133741;27;20474;-77
2021/04/11 18:31:26;;;;;;;3.63;2.33;;;;;;;;;;5113249;27;20044;-77
2021/04/11 18:33:55;;;;;;;2.95;1.45;;;;;;;;;;5130951;27;20022;-77
2021/04/11 18:36:30;;;;;;;4.10;1.73;;;;;;;;;;5124875;27;20049;-77
2021/04/11 18:39:20;;;;;;;3.05;1.83;;;;;;;;;;5119756;27;20131;-77
2021/04/11 18:42:01;;;;;;;3.30;2.03;;;;;;;;;;5106282;28;20556;-77
2021/04/11 18:44:27;;;;;;;3.13;2.10;;;;;;;;;;5108653;27;20564;-76
2021/04/11 18:46:59;;;;;;;4.18;3.08;;;;;;;;;;5111541;27;20035;-76
2021/04/11 18:49:26;;;;;;;;;;;;;;;;;;5106289;27;20484;-77
2021/04/11 18:52:01;;;;;;;4.28;1.95;;;;;;;;;;5113411;27;19965;-77
2021/04/11 18:54:34;;;;;;;3.83;2.80;;;;;;;;;;5109614;27;20425;-77
2021/04/11 18:57:23;;;;;;;5.53;4.00;;;;;;;;;;5104652;27;20023;-76
2021/04/11 18:59:58;;;;;;;3.63;1.80;;;;;;;;;;5100868;27;20832;-76
2021/04/11 19:02:30;;;;;;;5.25;2.47;;;;;;;;;;5111281;27;20043;-77
2021/04/11 19:05:08;;;;;;;6.18;4.03;;;;;;;;;;5105043;27;20122;-76
2021/04/11 19:07:37;;;;;;;5.55;2.30;;;;;;;;;;5109732;27;20067;-76
2021/04/11 19:10:14;;;;;;;4.32;3.15;;;;;;;;;;5111423;27;20128;-76
2021/04/11 19:12:43;;;;;;;2.80;1.30;;;;;;;;;;5112802;27;20499;-76
2021/04/11 19:15:12;;;;;;;5.43;1.33;;;;;;;;;;5109384;27;20914;-76
2021/04/11 19:17:45;;;;;;;2.88;1.60;;;;;;;;;;5111048;27;20032;-77
2021/04/11 19:20:15;;;;;;;2.45;1.25;;;;;;;;;;5109947;27;20543;-77
2021/04/11 19:22:44;;;;;;;3.28;2.10;;;;;;;;;;5112436;27;20035;-76
2021/04/11 19:25:28;;;;;;;4.13;1.80;;;;;;;;;;5113954;27;20119;-76
2021/04/11 19:28:07;;;;;;;3.10;1.60;;;;;;;;;;5108396;27;20079;-76
2021/04/11 19:30:45;;;;;;;4.28;2.35;;;;;;;;;;5112218;27;20495;-76
2021/04/11 19:33:17;;;;;;;6.65;3.60;;;;;;;;;;5111588;27;20027;-76
2021/04/11 19:35:52;;;;;;;8.48;2.70;;;;;;;;;;5111336;27;20080;-77
2021/04/11 19:38:18;;;;;;;4.57;2.40;;;;;;;;;;5105197;27;20114;-76
2021/04/11 19:40:46;;;;;;;4.40;2.08;;;;;;;;;;5115857;27;20057;-77
2021/04/11 19:43:12;;;;;;;6.32;3.25;;;;;;;;;;5113513;27;20039;-76
2021/04/11 19:45:55;;;;;;;5.43;3.10;;;;;;;;;;5116314;27;20024;-77
2021/04/11 19:48:39;;;;;;;6.35;3.58;;;;;;;;;;5115189;27;20055;-78
2021/04/11 19:51:18;;;;;;;3.70;2.38;;;;;;;;;;5115107;27;20055;-77
2021/04/11 19:53:48;;;;;;;2.83;1.52;;;;;;;;;;5120322;27;20023;-77
2021/04/11 19:56:43;;;;;;;3.00;1.52;;;;;;;;;;5106113;28;20027;-77
2021/04/11 19:59:29;;;;;;;2.33;1.05;;;;;;;;;;5103669;27;20043;-77
2021/04/11 20:01:55;;;;;;;2.65;1.10;;;;;;;;;;5113333;27;20022;-77
2021/04/11 20:04:39;;;;;;;4.10;1.98;;;;;;;;;;5113721;27;20479;-77
2021/04/11 20:07:25;;;;;;;2.95;1.40;;;;;;;;;;5109673;27;20125;-77
2021/04/11 20:09:51;;;;;;;3.25;1.73;;;;;;;;;;5110985;27;20116;-76
2021/04/11 20:12:35;;;;;;;2.20;1.10;;;;;;;;;;5112222;27;20024;-76
2021/04/11 20:15:16;;;;;;;1.83;0.93;;;;;;;;;;5109749;27;20020;-77
2021/04/11 20:17:48;;;;;;;2.28;1.08;;;;;;;;;;5108111;27;20084;-77
2021/04/11 20:20:20;;;;;;;2.80;1.08;;;;;;;;;;5113524;27;20095;-77
2021/04/11 20:22:52;;;;;;;2.95;1.40;;;;;;;;;;5114648;27;20094;-76
2021/04/11 20:25:39;;;;;;;22.85;10.65;;;;;;;;;;5113883;27;20037;-77
2021/04/11 20:28:23;;;;;;;4.05;2.03;;;;;;;;;;5108885;27;20035;-76
2021/04/11 20:30:58;;;;;;;5.45;3.10;;;;;;;;;;5111295;27;20030;-77
2021/04/11 20:33:30;;;;;;;2.30;1.15;;;;;;;;;;5110205;28;20498;-77
2021/04/11 20:36:05;;;;;;;3.55;1.77;;;;;;;;;;5107372;28;20053;-77
2021/04/11 20:38:48;;;;;;;8.90;2.15;;;;;;;;;;5112870;27;20027;-77
2021/04/11 20:41:33;;;;;;;2.45;1.17;;;;;;;;;;5105334;28;20084;-76
2021/04/11 20:44:17;;;;;;;2.92;1.75;;;;;;;;;;5107201;28;20043;-77